Time;durP1;ratioP1;P1;durP2;ratioP2;P2;SDS_P1;SDS_P2;PMS_P1;PMS_P2;Temp;Humidity;BMP_temperature;BMP_pressure;BME280_temperature;BME280_humidity;BME280_pressure;Samples;Min_cycle;Max_cycle;Signal;HPM_P1;HPM_P2
2024/01/18 05:48:21;;;;;;;3.22;2.00;;;;;;;-1.44;100.00;99474.88;4874087;24;20087;-74
2024/01/18 05:50:47;;;;;;;1.92;1.35;;;;;;;-1.32;100.00;99474.97;4776104;29;20075;-74
2024/01/18 05:53:12;;;;;;;3.72;1.92;;;;;;;-1.36;100.00;99470.47;4773476;30;20035;-74
2024/01/18 05:55:38;;;;;;;3.03;1.90;;;;;;;-1.41;100.00;99481.63;4788886;29;20039;-73
2024/01/18 05:58:03;;;;;;;1.58;1.40;;;;;;;-1.29;100.00;99485.28;4787278;29;20046;-74
2024/01/18 06:00:28;;;;;;;2.80;2.20;;;;;;;-1.37;100.00;99494.38;4782593;30;20039;-73
2024/01/18 06:02:56;;;;;;;5.00;2.40;;;;;;;-1.31;100.00;99492.25;4787842;29;20134;-75
2024/01/18 06:05:21;;;;;;;7.10;2.15;;;;;;;-1.39;100.00;99490.34;4786179;29;20034;-73
2024/01/18 06:07:47;;;;;;;3.75;2.13;;;;;;;-1.41;100.00;99495.34;4795191;29;20042;-73
2024/01/18 06:10:12;;;;;;;2.25;1.50;;;;;;;-1.50;100.00;99493.47;4802619;29;20024;-74
2024/01/18 06:12:37;;;;;;;4.43;2.03;;;;;;;-1.40;100.00;99492.28;4782738;29;20406;-75
2024/01/18 06:15:03;;;;;;;6.18;2.25;;;;;;;-1.41;100.00;99515.41;4780502;30;20113;-75
2024/01/18 06:17:29;;;;;;;3.60;1.77;;;;;;;-1.51;100.00;99504.78;4800872;29;20031;-75
2024/01/18 06:19:54;;;;;;;4.43;1.90;;;;;;;-1.49;100.00;99514.28;4807067;29;20039;-74
2024/01/18 06:22:21;;;;;;;7.20;2.40;;;;;;;-1.43;100.00;99512.19;4779028;30;20031;-74
2024/01/18 06:24:46;;;;;;;2.63;1.95;;;;;;;-1.52;100.00;99506.75;4784760;29;20051;-74
2024/01/18 06:27:12;;;;;;;4.30;1.95;;;;;;;-1.41;100.00;99514.56;4793425;29;20047;-73
2024/01/18 06:29:37;;;;;;;5.05;1.40;;;;;;;-1.57;100.00;99523.38;4788634;29;20042;-73
2024/01/18 06:32:03;;;;;;;2.22;2.03;;;;;;;-1.49;100.00;99528.00;4786690;29;20569;-73
2024/01/18 06:34:28;;;;;;;1.65;1.50;;;;;;;-1.55;100.00;99536.78;4787031;29;20039;-73
2024/01/18 06:36:53;;;;;;;3.75;2.20;;;;;;;-1.44;100.00;99555.25;4787300;29;20083;-74
2024/01/18 06:39:19;;;;;;;5.32;1.75;;;;;;;-1.53;100.00;99549.03;4774586;29;20126;-72
2024/01/18 06:41:44;;;;;;;2.25;1.48;;;;;;;-1.54;100.00;99544.69;4779204;29;20043;-73
2024/01/18 06:44:10;;;;;;;3.65;1.58;;;;;;;-1.49;100.00;99552.72;4782145;29;20047;-73
2024/01/18 06:46:35;;;;;;;1.80;1.63;;;;;;;-1.52;100.00;99553.38;4779643;29;20134;-73
2024/01/18 06:49:00;;;;;;;2.20;1.77;;;;;;;-1.55;100.00;99554.03;4784876;29;20043;-74
2024/01/18 06:51:26;;;;;;;2.45;1.83;;;;;;;-1.54;100.00;99555.66;4769519;30;20039;-72
2024/01/18 06:53:51;;;;;;;3.05;1.92;;;;;;;-1.51;100.00;99568.72;4765101;29;20048;-75
2024/01/18 06:56:17;;;;;;;1.77;1.58;;;;;;;-0.97;100.00;99565.38;4765134;29;20779;-75
2024/01/18 06:58:43;;;;;;;5.47;2.03;;;;;;;-0.99;100.00;99564.06;4761880;30;20039;-74
2024/01/18 07:01:09;;;;;;;1.60;1.50;;;;;;;-1.34;100.00;99570.56;4761628;30;20048;-73
2024/01/18 07:03:35;;;;;;;2.33;1.88;;;;;;;-1.51;100.00;99565.16;4762525;30;20194;-75
2024/01/18 07:06:04;;;;;;;2.40;2.20;;;;;;;-1.59;100.00;99569.53;4764261;29;20693;-73
2024/01/18 07:08:30;;;;;;;4.47;1.88;;;;;;;-1.65;100.00;99576.34;4755006;30;20524;-74
2024/01/18 07:10:56;;;;;;;2.15;1.67;;;;;;;-1.62;100.00;99578.44;4760263;30;20039;-76
2024/01/18 07:13:22;;;;;;;3.65;1.90;;;;;;;-1.34;100.00;99576.06;4757272;30;20078;-76
2024/01/18 07:15:47;;;;;;;2.78;1.70;;;;;;;-1.49;100.00;99569.19;4762054;30;20142;-74
2024/01/18 07:18:12;;;;;;;3.40;2.15;;;;;;;-1.59;100.00;99575.03;4760061;30;20515;-73
2024/01/18 07:20:38;;;;;;;2.60;1.70;;;;;;;-1.65;100.00;99571.66;4757734;30;20047;-73
2024/01/18 07:23:03;;;;;;;3.08;1.95;;;;;;;-1.71;100.00;99574.91;4759270;30;20402;-74
2024/01/18 07:25:29;;;;;;;2.78;2.25;;;;;;;-1.75;100.00;99584.91;4775273;29;20150;-74
2024/01/18 07:27:55;;;;;;;2.72;2.13;;;;;;;-1.78;100.00;99582.84;4760616;30;20051;-76
2024/01/18 07:30:21;;;;;;;3.63;2.08;;;;;;;-1.78;100.00;99596.56;4771646;29;20055;-77
2024/01/18 07:32:47;;;;;;;3.28;1.80;;;;;;;-1.80;100.00;99593.34;4762450;30;20051;-75
2024/01/18 07:35:15;;;;;;;2.03;1.80;;;;;;;-1.87;100.00;99602.88;4763790;30;20031;-75
2024/01/18 07:37:48;;;;;;;2.10;1.80;;;;;;;-1.89;100.00;99599.66;5099428;27;21304;-74
2024/01/18 07:40:14;;;;;;;7.88;2.97;;;;;;;-1.99;100.00;99597.25;5080821;28;20048;-75
2024/01/18 07:42:40;;;;;;;3.80;3.20;;;;;;;-1.93;100.00;99601.41;5078934;28;20043;-75
2024/01/18 07:45:07;;;;;;;4.85;2.95;;;;;;;-1.92;100.00;99600.31;5075955;28;20491;-73
2024/01/18 07:47:33;;;;;;;4.25;1.67;;;;;;;0.12;100.00;99603.97;5071299;28;20052;-75
2024/01/18 07:49:58;;;;;;;3.58;2.92;;;;;;;-1.23;100.00;99610.25;5074240;28;20399;-74
2024/01/18 07:52:25;;;;;;;3.72;2.70;;;;;;;-1.54;100.00;99606.97;5074207;28;20115;-75
2024/01/18 07:54:50;;;;;;;2.65;1.98;;;;;;;-1.68;100.00;99615.41;5071318;28;20020;-74
2024/01/18 07:57:17;;;;;;;6.15;3.35;;;;;;;-1.74;100.00;99622.22;5074378;28;20035;-74
2024/01/18 07:59:42;;;;;;;5.13;2.28;;;;;;;-1.79;100.00;99619.63;5075007;28;20480;-74
2024/01/18 08:02:07;;;;;;;1.95;1.85;;;;;;;-1.78;100.00;99618.50;5072497;28;20055;-73
2024/01/18 08:04:33;;;;;;;2.47;2.00;;;;;;;-1.78;100.00;99624.00;5077699;28;20021;-74
2024/01/18 08:06:58;;;;;;;2.10;1.77;;;;;;;-1.81;100.00;99630.13;5072038;28;20027;-76
2024/01/18 08:09:23;;;;;;;2.38;2.10;;;;;;;-1.81;100.00;99638.34;5071029;28;20043;-76
2024/01/18 08:11:49;;;;;;;4.18;2.13;;;;;;;-1.77;100.00;99639.31;5070208;28;20031;-75
2024/01/18 08:14:14;;;;;;;8.05;2.65;;;;;;;-1.72;100.00;99647.38;5070014;28;20047;-76
2024/01/18 08:16:40;;;;;;;2.30;2.10;;;;;;;-1.73;100.00;99643.00;5067746;28;20095;-76
2024/01/18 08:19:05;;;;;;;3.53;2.30;;;;;;;-1.75;100.00;99653.50;5074302;28;20068;-75
2024/01/18 08:21:31;;;;;;;4.03;2.40;;;;;;;-1.74;100.00;99644.97;5074843;28;20140;-75
2024/01/18 08:23:56;;;;;;;3.92;2.50;;;;;;;-1.71;100.00;99644.31;5072889;28;20032;-76
2024/01/18 08:26:22;;;;;;;10.85;3.45;;;;;;;-1.67;100.00;99649.94;5075433;28;20032;-76
2024/01/18 08:28:47;;;;;;;3.85;3.03;;;;;;;-1.67;100.00;99658.97;5072611;28;20036;-75
2024/01/18 08:31:14;;;;;;;5.60;3.70;;;;;;;-1.66;100.00;99651.56;5069873;28;20021;-76
2024/01/18 08:33:40;;;;;;;3.72;2.85;;;;;;;-1.67;100.00;99663.66;5070117;28;20546;-75
2024/01/18 08:36:08;;;;;;;5.07;3.28;;;;;;;-1.67;100.00;99666.41;5081200;28;20033;-78
2024/01/18 08:38:33;;;;;;;4.88;3.15;;;;;;;-1.63;100.00;99673.66;5076893;28;20032;-75
2024/01/18 08:40:59;;;;;;;5.25;2.60;;;;;;;-1.56;100.00;99681.41;5079909;28;20452;-75
2024/01/18 08:43:27;;;;;;;4.20;3.20;;;;;;;-1.60;100.00;99682.38;5086906;28;20070;-75
2024/01/18 08:45:55;;;;;;;8.55;3.67;;;;;;;-1.54;100.00;99687.38;5068383;28;20468;-75
2024/01/18 08:48:21;;;;;;;5.53;3.55;;;;;;;-1.55;100.00;99685.75;5068871;28;20036;-74
2024/01/18 08:50:46;;;;;;;4.85;3.55;;;;;;;-1.53;100.00;99690.94;5062837;28;20040;-74
2024/01/18 08:53:11;;;;;;;6.30;3.47;;;;;;;-1.53;100.00;99699.94;5057671;28;20025;-74
2024/01/18 08:55:38;;;;;;;8.30;4.45;;;;;;;-1.50;100.00;99701.25;5062874;28;20040;-75
2024/01/18 08:58:04;;;;;;;5.15;3.53;;;;;;;-1.42;100.00;99710.59;5059939;28;20552;-75
2024/01/18 09:00:29;;;;;;;10.50;4.18;;;;;;;-1.39;100.00;99712.69;5068304;28;20143;-75
2024/01/18 09:02:55;;;;;;;6.70;3.50;;;;;;;-1.40;100.00;99719.31;5066257;28;20107;-75
2024/01/18 09:05:20;;;;;;;5.80;4.53;;;;;;;-1.32;100.00;99737.72;5065508;28;20369;-75
2024/01/18 09:07:45;;;;;;;6.75;4.32;;;;;;;-1.31;100.00;99731.88;5064325;28;20078;-75
2024/01/18 09:10:11;;;;;;;6.60;4.32;;;;;;;-1.31;100.00;99734.63;5070658;28;20115;-76
2024/01/18 09:12:37;;;;;;;7.97;4.20;;;;;;;-1.28;100.00;99738.66;5061054;28;20079;-76
2024/01/18 09:15:03;;;;;;;5.28;3.05;;;;;;;-1.23;100.00;99741.22;5064292;28;20028;-76
2024/01/18 09:17:29;;;;;;;4.20;3.05;;;;;;;-1.22;100.00;99737.38;5059679;28;20119;-76
2024/01/18 09:19:54;;;;;;;9.70;3.42;;;;;;;-1.24;100.00;99747.88;5064332;28;20120;-74
2024/01/18 09:22:19;;;;;;;4.85;3.78;;;;;;;-1.15;100.00;99759.63;5064933;28;20126;-74
2024/01/18 09:24:45;;;;;;;5.18;3.47;;;;;;;-1.16;100.00;99766.25;5067328;28;20038;-76
2024/01/18 09:27:11;;;;;;;6.10;3.28;;;;;;;-1.13;100.00;99762.06;5062641;28;20484;-74
2024/01/18 09:29:37;;;;;;;7.03;3.08;;;;;;;-1.09;100.00;99769.31;5063866;28;20043;-74
2024/01/18 09:32:03;;;;;;;3.00;2.58;;;;;;;-1.11;100.00;99765.28;5072415;28;20025;-74
2024/01/18 09:34:29;;;;;;;5.85;3.63;;;;;;;-1.15;100.00;99765.13;5064503;28;20035;-74
2024/01/18 09:36:54;;;;;;;3.97;2.80;;;;;;;-1.16;100.00;99769.00;5058023;28;20522;-74
2024/01/18 09:39:20;;;;;;;4.70;3.20;;;;;;;-1.03;100.00;99770.75;5058390;28;20118;-74
2024/01/18 09:41:55;;;;;;;6.03;2.63;;;;;;;-1.02;100.00;99775.09;5060812;28;20105;-75
2024/01/18 09:44:31;;;;;;;4.47;2.53;;;;;;;-1.08;100.00;99775.59;5064978;28;20048;-75
2024/01/18 09:46:58;;;;;;;3.70;2.58;;;;;;;-1.07;100.00;99794.50;5055328;28;20024;-74
2024/01/18 09:49:27;;;;;;;3.78;2.80;;;;;;;-0.88;100.00;99798.84;5062716;28;20024;-74
2024/01/18 09:51:52;;;;;;;4.32;2.72;;;;;;;-0.85;100.00;99798.16;5059037;28;20488;-74
2024/01/18 09:54:18;;;;;;;8.38;2.92;;;;;;;-0.81;100.00;99796.38;5062249;28;20028;-74
2024/01/18 09:56:48;;;;;;;4.45;2.42;;;;;;;-0.87;100.00;99811.41;5060035;28;20031;-74
2024/01/18 09:59:18;;;;;;;3.42;2.05;;;;;;;-0.79;100.00;99820.78;5061886;28;20025;-75
2024/01/18 10:01:44;;;;;;;4.57;2.55;;;;;;;-0.66;100.00;99826.06;5060932;28;20059;-73
2024/01/18 10:04:13;;;;;;;3.33;2.58;;;;;;;-0.52;100.00;99836.06;5057167;28;20365;-73
2024/01/18 10:06:39;;;;;;;4.57;2.55;;;;;;;-0.57;100.00;99828.81;5064816;28;20051;-72
2024/01/18 10:09:10;;;;;;;4.38;3.45;;;;;;;-0.51;100.00;99837.66;5059491;28;20404;-74
2024/01/18 10:11:36;;;;;;;7.97;3.30;;;;;;;-0.56;100.00;99846.91;5054255;28;20122;-74
2024/01/18 10:14:02;;;;;;;4.13;2.63;;;;;;;-0.64;100.00;99845.78;5060066;28;20051;-73
2024/01/18 10:16:35;;;;;;;10.90;3.35;;;;;;;-0.49;100.00;99860.13;5061315;28;20522;-73
2024/01/18 10:19:18;;;;;;;3.63;2.40;;;;;;;-0.46;100.00;99863.03;5058601;28;20040;-73
2024/01/18 10:21:46;;;;;;;8.38;2.58;;;;;;;-0.52;100.00;99858.84;5050559;28;20029;-74
2024/01/18 10:24:13;;;;;;;3.95;2.60;;;;;;;-0.37;100.00;99860.25;5059131;28;20035;-73
2024/01/18 10:26:39;;;;;;;6.35;3.17;;;;;;;-0.38;100.00;99853.16;5059967;28;20033;-74
2024/01/18 10:29:06;;;;;;;6.90;3.45;;;;;;;-0.33;100.00;99850.22;5056954;28;20066;-73
2024/01/18 10:31:31;;;;;;;5.32;3.17;;;;;;;-0.19;100.00;99860.16;5062240;28;20468;-73
2024/01/18 10:33:56;;;;;;;4.28;2.92;;;;;;;-0.38;100.00;99863.31;5060492;28;20029;-73
2024/01/18 10:36:22;;;;;;;6.07;3.00;;;;;;;-0.44;100.00;99873.72;5067548;28;20412;-72
2024/01/18 10:38:47;;;;;;;10.65;3.40;;;;;;;-0.32;100.00;99884.81;5055324;28;20119;-74
2024/01/18 10:41:18;;;;;;;6.22;3.03;;;;;;;-0.19;100.00;99887.69;5060692;28;20126;-72
2024/01/18 10:43:43;;;;;;;5.10;3.28;;;;;;;-0.03;100.00;99897.00;5064653;28;20384;-74
2024/01/18 10:46:10;;;;;;;6.47;3.17;;;;;;;-0.14;100.00;99893.81;5059049;28;20071;-76
2024/01/18 10:48:36;;;;;;;5.00;3.10;;;;;;;-0.10;100.00;99896.72;5056842;28;20033;-76
2024/01/18 10:51:04;;;;;;;6.75;2.53;;;;;;;-0.21;100.00;99901.78;5058608;28;20021;-75
2024/01/18 10:53:34;;;;;;;2.38;2.05;;;;;;;-0.26;100.00;99900.00;5055189;28;20036;-74
2024/01/18 10:56:00;;;;;;;12.02;2.50;;;;;;;-0.07;100.00;99896.03;5062761;28;20032;-74
2024/01/18 10:58:26;;;;;;;4.18;1.95;;;;;;;0.05;100.00;99892.59;5067104;28;20032;-74
2024/01/18 11:00:52;;;;;;;4.93;2.63;;;;;;;-0.01;100.00;99894.72;5062453;28;20032;-73
2024/01/18 11:03:18;;;;;;;17.55;2.55;;;;;;;0.15;100.00;99917.00;5056230;28;20021;-73
2024/01/18 11:05:48;;;;;;;4.70;3.00;;;;;;;0.24;100.00;99916.94;5062016;28;20036;-73
2024/01/18 11:08:14;;;;;;;7.57;2.17;;;;;;;0.18;100.00;99930.88;5058382;28;20047;-75
2024/01/18 11:10:41;;;;;;;5.20;2.30;;;;;;;0.20;100.00;99928.59;5055005;28;20060;-73
2024/01/18 11:13:08;;;;;;;3.03;1.90;;;;;;;0.31;100.00;99928.22;5073317;28;20139;-74
2024/01/18 11:15:36;;;;;;;9.38;2.75;;;;;;;0.22;100.00;99925.53;5063476;28;20404;-72
2024/01/18 11:18:11;;;;;;;6.68;2.35;;;;;;;0.32;100.00;99935.38;5062044;28;20053;-74
2024/01/18 11:20:58;;;;;;;2.50;1.77;;;;;;;0.34;100.00;99938.59;5062800;28;20111;-76
2024/01/18 11:23:27;;;;;;;5.15;1.60;;;;;;;0.55;100.00;99931.19;5052716;28;20135;-75
2024/01/18 11:25:52;;;;;;;2.92;1.73;;;;;;;0.68;100.00;99942.28;5060390;28;20037;-72
2024/01/18 11:28:22;;;;;;;6.53;3.00;;;;;;;0.84;100.00;99940.53;5058729;28;20042;-72
2024/01/18 11:30:48;;;;;;;8.15;3.83;;;;;;;0.75;100.00;99948.84;5060022;28;20368;-73
2024/01/18 11:33:13;;;;;;;13.85;3.08;;;;;;;0.68;100.00;99959.59;5054928;28;20028;-75
2024/01/18 11:35:39;;;;;;;12.63;2.45;;;;;;;0.78;100.00;99958.38;5068292;28;20032;-73
2024/01/18 11:38:21;;;;;;;2.25;1.67;;;;;;;0.78;100.00;99959.22;5064931;28;20542;-74
2024/01/18 11:40:51;;;;;;;3.45;1.65;;;;;;;1.02;100.00;99966.81;5062230;28;20067;-75
2024/01/18 11:43:21;;;;;;;3.92;1.45;;;;;;;1.21;100.00;99965.53;5060097;28;20439;-75
2024/01/18 11:45:50;;;;;;;3.22;1.52;;;;;;;1.25;100.00;99971.19;5058841;28;20035;-75
2024/01/18 11:48:16;;;;;;;3.13;1.20;;;;;;;1.33;100.00;99973.88;5048764;28;20027;-72
2024/01/18 11:50:42;;;;;;;7.00;1.77;;;;;;;1.08;100.00;99972.13;5054330;28;20036;-74
2024/01/18 11:53:09;;;;;;;1.10;0.98;;;;;;;1.02;100.00;99977.03;5051160;28;20037;-74
2024/01/18 11:55:37;;;;;;;1.83;1.02;;;;;;;1.12;100.00;99975.84;5055225;28;20044;-74
2024/01/18 11:58:03;;;;;;;1.38;1.25;;;;;;;1.12;100.00;99973.09;5058973;28;20036;-75
2024/01/18 12:00:30;;;;;;;3.95;1.20;;;;;;;1.30;100.00;99980.03;5055792;28;20046;-74
2024/01/18 12:02:55;;;;;;;5.15;1.02;;;;;;;1.13;100.00;99986.50;5050048;28;20032;-75
2024/01/18 12:05:21;;;;;;;5.50;1.05;;;;;;;1.15;100.00;99986.19;5050315;28;20078;-74
2024/01/18 12:07:47;;;;;;;7.20;1.90;;;;;;;1.30;100.00;99987.53;5052760;28;20058;-73
2024/01/18 12:10:12;;;;;;;2.92;0.93;;;;;;;1.08;100.00;99988.69;5051303;28;20037;-72
2024/01/18 12:12:41;;;;;;;4.88;1.30;;;;;;;1.24;100.00;99986.91;5062926;28;20028;-72
2024/01/18 12:15:07;;;;;;;2.10;1.20;;;;;;;1.30;100.00;100006.81;5056470;28;20056;-75
2024/01/18 12:17:33;;;;;;;1.63;1.02;;;;;;;1.19;100.00;100001.69;5058429;28;20059;-73
2024/01/18 12:19:59;;;;;;;1.95;0.90;;;;;;;1.28;100.00;100009.09;5063974;28;20032;-72
2024/01/18 12:22:26;;;;;;;2.03;0.65;;;;;;;1.23;100.00;100018.38;5057816;28;20033;-74
2024/01/18 12:24:52;;;;;;;2.45;0.93;;;;;;;1.19;100.00;100015.47;5061286;28;20131;-73
2024/01/18 12:27:17;;;;;;;5.30;0.90;;;;;;;1.17;100.00;100019.72;5057860;28;20032;-73
2024/01/18 12:29:44;;;;;;;4.30;0.93;;;;;;;1.30;100.00;100020.59;5062762;28;20064;-75
2024/01/18 12:32:09;;;;;;;3.70;0.75;;;;;;;1.24;100.00;100020.00;5055145;28;20037;-72
2024/01/18 12:34:35;;;;;;;2.17;0.90;;;;;;;1.49;100.00;100031.16;5067170;28;20050;-73
2024/01/18 12:37:04;;;;;;;4.85;1.55;;;;;;;1.32;100.00;100037.63;5062487;28;20063;-74
2024/01/18 12:39:30;;;;;;;3.33;1.05;;;;;;;1.55;100.00;100041.63;5060744;28;20032;-74
2024/01/18 12:41:56;;;;;;;2.90;0.88;;;;;;;1.62;100.00;100035.56;5057412;28;20113;-74
2024/01/18 12:44:25;;;;;;;3.38;0.80;;;;;;;1.29;100.00;100050.13;5063861;28;20024;-73
2024/01/18 12:46:58;;;;;;;6.07;0.60;;;;;;;1.45;100.00;100057.78;5066987;28;20094;-76
2024/01/18 12:49:24;;;;;;;1.27;0.73;;;;;;;1.42;100.00;100062.84;5051578;28;20032;-75
2024/01/18 12:51:55;;;;;;;2.40;0.75;;;;;;;1.38;100.00;100070.16;5070611;28;20392;-75
2024/01/18 12:54:23;;;;;;;3.22;0.93;;;;;;;1.47;100.00;100069.28;5062392;28;20033;-75
2024/01/18 12:57:06;;;;;;;1.75;0.52;;;;;;;1.47;100.00;100070.09;5058652;28;20099;-75
2024/01/18 12:59:32;;;;;;;1.45;0.60;;;;;;;1.49;100.00;100065.03;5055411;28;20193;-73
2024/01/18 13:01:57;;;;;;;1.08;0.70;;;;;;;1.65;100.00;100073.53;5059077;28;20123;-75
2024/01/18 13:04:28;;;;;;;0.82;0.82;;;;;;;1.79;100.00;100082.34;5065322;28;20035;-73
2024/01/18 13:06:58;;;;;;;1.05;0.85;;;;;;;1.57;100.00;100079.94;5061293;28;20020;-74
2024/01/18 13:09:27;;;;;;;1.05;0.80;;;;;;;1.54;100.00;100083.34;5064678;28;20033;-74
2024/01/18 13:11:54;;;;;;;0.57;0.57;;;;;;;1.54;100.00;100086.09;5055990;28;20460;-75
2024/01/18 13:14:19;;;;;;;1.38;0.80;;;;;;;2.07;100.00;100095.56;5060364;28;20363;-73
2024/01/18 13:16:46;;;;;;;0.90;0.65;;;;;;;1.56;100.00;100100.34;5059442;28;20080;-72
2024/01/18 13:19:14;;;;;;;2.80;0.80;;;;;;;1.50;100.00;100107.25;5059140;28;20025;-74
2024/01/18 13:21:43;;;;;;;1.27;0.95;;;;;;;1.42;100.00;100112.47;5062103;28;20025;-75
2024/01/18 13:24:10;;;;;;;4.60;1.00;;;;;;;1.30;100.00;100115.16;5058005;28;20025;-73
2024/01/18 13:26:38;;;;;;;2.85;1.00;;;;;;;1.43;100.00;100113.28;5062647;28;20092;-73
2024/01/18 13:29:04;;;;;;;1.35;1.27;;;;;;;1.36;100.00;100116.56;5061615;28;20046;-74
2024/01/18 13:31:31;;;;;;;0.73;0.70;;;;;;;1.28;100.00;100116.63;5056707;28;20048;-73
2024/01/18 13:33:57;;;;;;;0.73;0.55;;;;;;;1.27;100.00;100124.09;5057044;28;20029;-75
2024/01/18 13:36:22;;;;;;;1.48;1.00;;;;;;;1.24;100.00;100135.78;5058662;28;20048;-74
2024/01/18 13:38:47;;;;;;;0.60;0.60;;;;;;;1.24;100.00;100132.22;5062726;28;20028;-75
2024/01/18 13:41:13;;;;;;;0.98;0.82;;;;;;;1.30;100.00;100145.47;5057427;28;20483;-75
2024/01/18 13:43:38;;;;;;;1.17;0.90;;;;;;;1.19;100.00;100149.75;5056085;28;20035;-74
2024/01/18 13:46:04;;;;;;;2.03;0.90;;;;;;;1.25;100.00;100159.47;5060592;28;20411;-74
2024/01/18 13:48:31;;;;;;;1.70;1.35;;;;;;;1.22;100.00;100160.09;5058043;28;20025;-74
2024/01/18 13:50:59;;;;;;;0.60;0.60;;;;;;;1.30;100.00;100161.22;5063323;28;20033;-73
2024/01/18 13:53:25;;;;;;;0.30;0.30;;;;;;;1.32;100.00;100172.72;5063364;28;20029;-73
2024/01/18 13:55:51;;;;;;;1.38;1.25;;;;;;;1.25;100.00;100175.19;5060846;28;20473;-74
2024/01/18 13:58:17;;;;;;;0.85;0.60;;;;;;;1.26;100.00;100172.09;5063643;28;20052;-73
2024/01/18 14:00:43;;;;;;;1.88;0.70;;;;;;;1.30;100.00;100177.75;5061220;28;20067;-74
2024/01/18 14:03:10;;;;;;;4.22;0.93;;;;;;;1.32;100.00;100186.50;5060586;28;20385;-74
2024/01/18 14:05:36;;;;;;;0.70;0.70;;;;;;;1.42;100.00;100186.94;5061209;28;20472;-73
2024/01/18 14:08:01;;;;;;;0.60;0.50;;;;;;;1.35;100.00;100196.84;5061119;28;20025;-75
2024/01/18 14:10:28;;;;;;;0.80;0.60;;;;;;;1.28;100.00;100213.13;5055202;28;20396;-75
2024/01/18 14:12:53;;;;;;;0.82;0.82;;;;;;;1.34;100.00;100209.03;5059514;28;20028;-75
2024/01/18 14:15:18;;;;;;;2.13;0.93;;;;;;;1.33;100.00;100213.75;5060020;28;20032;-75
2024/01/18 14:17:44;;;;;;;0.65;0.65;;;;;;;1.42;100.00;100224.75;5060412;28;20162;-76
2024/01/18 14:20:10;;;;;;;2.58;0.80;;;;;;;1.44;100.00;100229.94;5054797;28;20086;-75
2024/01/18 14:22:35;;;;;;;0.82;0.82;;;;;;;1.41;100.00;100228.63;5057313;28;20085;-75
2024/01/18 14:25:01;;;;;;;2.45;0.90;;;;;;;1.52;100.00;100229.03;5061996;28;20036;-75
2024/01/18 14:27:27;;;;;;;2.25;0.80;;;;;;;1.42;100.00;100241.28;5057588;28;20020;-77
2024/01/18 14:29:53;;;;;;;1.02;0.77;;;;;;;1.58;100.00;100244.28;5059940;28;20059;-76
2024/01/18 14:32:18;;;;;;;1.20;0.82;;;;;;;1.54;100.00;100254.34;5054013;28;20490;-75
2024/01/18 14:34:43;;;;;;;1.58;0.60;;;;;;;1.54;100.00;100257.09;5056954;28;20086;-75
2024/01/18 14:37:09;;;;;;;1.88;1.00;;;;;;;1.65;100.00;100263.09;5059440;28;20051;-75
2024/01/18 14:39:36;;;;;;;1.95;0.98;;;;;;;1.56;100.00;100268.63;5070544;28;20028;-75
2024/01/18 14:42:01;;;;;;;0.80;0.60;;;;;;;1.56;100.00;100274.13;5057629;28;20046;-75
2024/01/18 14:44:28;;;;;;;3.63;1.25;;;;;;;1.49;100.00;100277.41;5059502;28;20028;-75
2024/01/18 14:46:53;;;;;;;3.42;0.80;;;;;;;1.42;100.00;100280.69;5054356;28;20029;-75
2024/01/18 14:49:19;;;;;;;0.95;0.90;;;;;;;1.53;100.00;100285.84;5055428;28;20028;-75
2024/01/18 14:51:45;;;;;;;0.75;0.70;;;;;;;1.55;100.00;100294.59;5060439;28;20020;-76
2024/01/18 14:54:10;;;;;;;0.82;0.82;;;;;;;1.55;100.00;100297.34;5056628;28;20071;-76
2024/01/18 14:56:36;;;;;;;1.48;1.00;;;;;;;1.50;100.00;100295.59;5061496;28;20021;-76
2024/01/18 14:59:03;;;;;;;1.73;0.60;;;;;;;1.56;100.00;100307.22;5062671;28;20119;-75
2024/01/18 15:01:29;;;;;;;3.30;0.85;;;;;;;1.54;100.00;100320.53;5067603;28;20039;-76
2024/01/18 15:03:55;;;;;;;1.17;1.00;;;;;;;1.50;100.00;100325.13;5062805;28;20504;-76
2024/01/18 15:06:20;;;;;;;3.58;1.20;;;;;;;1.65;100.00;100327.34;5058816;28;20028;-75
2024/01/18 15:08:45;;;;;;;0.80;0.80;;;;;;;1.56;100.00;100326.53;5059202;28;20042;-76
2024/01/18 15:11:11;;;;;;;2.97;0.80;;;;;;;1.64;100.00;100339.50;5061200;28;20060;-75
2024/01/18 15:13:36;;;;;;;2.38;0.82;;;;;;;1.53;100.00;100346.53;5061383;28;20487;-75
2024/01/18 15:16:02;;;;;;;2.65;0.88;;;;;;;1.72;100.00;100354.41;5060486;28;20068;-75
2024/01/18 15:18:28;;;;;;;1.90;1.30;;;;;;;1.76;100.00;100356.16;5060801;28;20040;-74
2024/01/18 15:20:53;;;;;;;2.70;0.90;;;;;;;1.73;100.00;100356.00;5058483;28;20047;-73
2024/01/18 15:23:18;;;;;;;0.68;0.68;;;;;;;1.72;100.00;100365.44;5059490;28;20097;-74
2024/01/18 15:25:44;;;;;;;1.85;1.45;;;;;;;1.71;100.00;100380.38;5060852;28;20058;-74
2024/01/18 15:28:09;;;;;;;2.35;1.50;;;;;;;2.93;100.00;100382.38;5064609;28;20070;-74
2024/01/18 15:30:35;;;;;;;4.45;1.48;;;;;;;2.23;100.00;100389.25;5057510;28;20067;-74
2024/01/18 15:33:00;;;;;;;3.70;1.00;;;;;;;2.12;100.00;100396.28;5055381;28;20036;-74
2024/01/18 15:35:25;;;;;;;1.40;0.82;;;;;;;1.97;100.00;100405.13;5056260;28;20062;-74
2024/01/18 15:37:51;;;;;;;1.58;1.00;;;;;;;1.86;100.00;100401.91;5057257;28;20029;-74
2024/01/18 15:40:16;;;;;;;1.98;0.82;;;;;;;1.74;100.00;100408.13;5056268;28;20442;-74
2024/01/18 15:42:42;;;;;;;2.05;1.20;;;;;;;1.67;100.00;100410.59;5057936;28;20028;-74
2024/01/18 15:45:09;;;;;;;1.30;0.98;;;;;;;1.72;100.00;100409.59;5056267;28;20029;-74
2024/01/18 15:47:40;;;;;;;3.90;1.23;;;;;;;1.72;100.00;100426.94;5055905;28;20852;-75
2024/01/18 15:50:07;;;;;;;2.80;1.35;;;;;;;1.69;100.00;100427.63;5058243;28;20134;-74
2024/01/18 15:52:32;;;;;;;3.63;1.40;;;;;;;1.65;100.00;100431.38;5061140;28;20429;-75
2024/01/18 15:54:57;;;;;;;1.70;1.08;;;;;;;1.70;100.00;100434.75;5053293;28;20025;-73
2024/01/18 15:57:23;;;;;;;1.85;1.30;;;;;;;1.76;100.00;100443.66;5057401;28;20450;-73
2024/01/18 15:59:50;;;;;;;2.25;1.38;;;;;;;2.27;100.00;100452.06;5058574;28;20460;-74
2024/01/18 16:02:15;;;;;;;3.85;1.58;;;;;;;1.93;100.00;100464.88;5055165;28;20031;-75
2024/01/18 16:04:41;;;;;;;2.10;1.45;;;;;;;1.74;100.00;100460.53;5056343;28;20384;-74
2024/01/18 16:07:06;;;;;;;3.70;1.38;;;;;;;1.57;100.00;100474.38;5059233;28;20139;-75
2024/01/18 16:09:31;;;;;;;4.40;1.95;;;;;;;1.61;100.00;100481.66;5063284;28;20388;-74
2024/01/18 16:11:57;;;;;;;3.58;1.85;;;;;;;1.62;100.00;100488.00;5060317;28;20033;-73
2024/01/18 16:14:22;;;;;;;4.22;2.30;;;;;;;1.63;100.00;100495.16;5061976;28;20024;-74
2024/01/18 16:16:48;;;;;;;6.18;2.03;;;;;;;1.69;100.00;100496.59;5057966;28;20055;-75
2024/01/18 16:19:18;;;;;;;5.38;1.95;;;;;;;1.67;100.00;100501.63;5062360;28;20547;-76
2024/01/18 16:21:44;;;;;;;3.72;2.35;;;;;;;1.57;100.00;100513.00;5055821;28;20032;-76
2024/01/18 16:24:12;;;;;;;7.53;3.22;;;;;;;1.45;100.00;100510.09;5055820;28;20040;-76
2024/01/18 16:26:37;;;;;;;5.00;3.55;;;;;;;1.35;100.00;100520.31;5061660;28;20082;-76
2024/01/18 16:29:03;;;;;;;4.63;4.10;;;;;;;1.24;100.00;100519.00;5061967;28;20460;-76
2024/01/18 16:31:28;;;;;;;7.72;4.65;;;;;;;1.17;100.00;100526.94;5060238;28;20048;-76
2024/01/18 16:33:54;;;;;;;6.45;4.80;;;;;;;1.14;100.00;100525.66;5064336;28;20032;-75
2024/01/18 16:36:19;;;;;;;6.88;4.88;;;;;;;1.12;100.00;100529.88;5058926;28;20037;-76
2024/01/18 16:38:45;;;;;;;7.30;4.40;;;;;;;1.04;100.00;100520.47;5064567;28;20032;-76
2024/01/18 16:41:10;;;;;;;11.55;4.57;;;;;;;1.04;100.00;100536.19;5063227;28;20628;-76
2024/01/18 16:43:37;;;;;;;8.32;4.97;;;;;;;1.00;100.00;100539.56;5060010;28;20034;-76
2024/01/18 16:46:02;;;;;;;11.43;4.82;;;;;;;0.98;100.00;100541.84;5058595;28;20383;-76
2024/01/18 16:48:28;;;;;;;7.38;4.25;;;;;;;0.98;100.00;100550.09;5057155;28;20044;-76
2024/01/18 16:50:54;;;;;;;9.05;4.45;;;;;;;0.96;100.00;100552.38;5058416;28;20671;-76
2024/01/18 16:53:19;;;;;;;8.27;4.10;;;;;;;0.92;100.00;100561.59;5060235;28;20036;-76
2024/01/18 16:55:44;;;;;;;5.25;4.05;;;;;;;0.90;100.00;100561.91;5057645;28;20025;-76
2024/01/18 16:58:10;;;;;;;5.60;2.95;;;;;;;0.97;100.00;100559.53;5057258;28;20414;-76
2024/01/18 17:00:35;;;;;;;6.90;4.05;;;;;;;0.91;100.00;100571.81;5057904;28;20063;-76
2024/01/18 17:03:00;;;;;;;3.88;2.90;;;;;;;0.99;100.00;100575.72;5058840;28;20036;-76
2024/01/18 17:05:26;;;;;;;8.15;4.88;;;;;;;0.90;100.00;100569.38;5062521;28;20028;-76
2024/01/18 17:07:52;;;;;;;6.82;3.40;;;;;;;0.91;100.00;100573.78;5057034;28;20033;-76
2024/01/18 17:10:17;;;;;;;8.68;4.78;;;;;;;0.90;100.00;100572.94;5052780;28;20081;-76